Patuxent River Naval Air Station/Trapnell Field Aiport
KNHK : now visible

Airfield :











YOU CAN JOIN US ON...

 
LOGIN :

Register | Disclaimer

   EN    FR    IT 

 









Legend :    VFR   Marginal VFR   IFR   Intensive IFR   Very Intensive IFR
Visi :
Ceiling :
>= 8 km
>= 3000ft
5 to 8 km
1000 to 3000 ft
1500m to 5 km
500 to 1000 ft
800 to 1500m
200 to 500 ft
< 800m
< 200 ft
Symbols :   Thunderstorms  Fog  Heavy snow  Heavy precipitations  Wind > 20 kt






- Airport Elevation : 39 ft


KNHK - Patuxent River Naval Air Station/Trapnell Field Aiport

CURRENT METAR :
  • 171752Z 11008KT 10SM FEW050 BKN250 22/09 A3031 RMK AO2 SLP263 T02220094 10228 20167 58005 $

EXPIRED METARs :
  • 171652Z 13006KT 10SM FEW050 BKN250 22/08 A3032 RMK AO2 SLP267 T02170078 $
  • 171552Z 12005KT 10SM FEW050 SCT250 22/04 A3033 RMK AO2 SLP269 T02170044 $

TAF TAF KNHK
Valid from the 17 at 15:00 until the 18 at 15:00 UTC


1715/1815 VRB03KT 9999 FEW050 FEW090 SCT280 QNH3028INS
FM171600 12008KT 9999 SCT060 SCT220 BKN280 QNH3025INS
BECMG 1800/1802 VRB04KT 9999 FEW070 SCT250 QNH3028INS T23/1720Z T14/1811Z FN20066
KZDC FIR / North America



MET'MAP, your aeronautical weather chart ! - Copyright ORBIFLY December 2007 - Disclaimer

ORBIFLY MET'MAP TEAM :

Programming & Development : Alexandra Zaïnal
Concept & original design : Baudouin d'Aumeries
Assistance for programming : Marc-Olivier Méhu
Technical & hardware support : Manuel Goepfert

Contact : metmap@orbifly.com




SOURCES & CREDITS :

   NOAA       Earth
Advisory